sensor_id;sensor_type;location;lat;lon;timestamp;P1;durP1;ratioP1;P2;durP2;ratioP2
3177;SDS011;38141;42.666;23.344;2023-11-21T00:00:46;22.47;;;13.97;;
3177;SDS011;38141;42.666;23.344;2023-11-21T00:03:14;23.43;;;14.20;;
3177;SDS011;38141;42.666;23.344;2023-11-21T00:05:41;27.37;;;15.20;;
3177;SDS011;38141;42.666;23.344;2023-11-21T00:08:08;22.30;;;13.70;;
3177;SDS011;38141;42.666;23.344;2023-11-21T00:10:35;22.80;;;13.93;;
3177;SDS011;38141;42.666;23.344;2023-11-21T00:13:03;20.80;;;12.23;;
3177;SDS011;38141;42.666;23.344;2023-11-21T00:15:31;20.87;;;12.07;;
3177;SDS011;38141;42.666;23.344;2023-11-21T00:17:58;26.00;;;13.20;;
3177;SDS011;38141;42.666;23.344;2023-11-21T00:20:26;22.27;;;13.47;;
3177;SDS011;38141;42.666;23.344;2023-11-21T00:22:53;20.20;;;12.50;;
3177;SDS011;38141;42.666;23.344;2023-11-21T00:25:19;24.10;;;13.97;;
3177;SDS011;38141;42.666;23.344;2023-11-21T00:27:46;21.53;;;13.73;;
3177;SDS011;38141;42.666;23.344;2023-11-21T00:30:13;29.17;;;13.33;;
3177;SDS011;38141;42.666;23.344;2023-11-21T00:32:41;20.20;;;13.40;;
3177;SDS011;38141;42.666;23.344;2023-11-21T00:35:08;21.77;;;13.87;;
3177;SDS011;38141;42.666;23.344;2023-11-21T00:37:36;22.33;;;12.27;;
3177;SDS011;38141;42.666;23.344;2023-11-21T00:40:04;22.70;;;14.57;;
3177;SDS011;38141;42.666;23.344;2023-11-21T00:42:32;25.60;;;14.60;;
3177;SDS011;38141;42.666;23.344;2023-11-21T00:44:59;18.50;;;12.63;;
3177;SDS011;38141;42.666;23.344;2023-11-21T00:47:26;20.80;;;12.20;;
3177;SDS011;38141;42.666;23.344;2023-11-21T00:49:53;20.17;;;12.73;;
3177;SDS011;38141;42.666;23.344;2023-11-21T00:52:22;24.70;;;13.00;;
3177;SDS011;38141;42.666;23.344;2023-11-21T00:54:50;23.73;;;13.20;;
3177;SDS011;38141;42.666;23.344;2023-11-21T00:57:17;22.23;;;13.27;;
3177;SDS011;38141;42.666;23.344;2023-11-21T00:59:44;21.63;;;12.20;;
3177;SDS011;38141;42.666;23.344;2023-11-21T01:02:11;18.27;;;12.67;;
3177;SDS011;38141;42.666;23.344;2023-11-21T01:04:38;24.93;;;13.30;;
3177;SDS011;38141;42.666;23.344;2023-11-21T01:07:05;24.87;;;14.43;;
3177;SDS011;38141;42.666;23.344;2023-11-21T01:09:32;22.57;;;12.83;;
3177;SDS011;38141;42.666;23.344;2023-11-21T01:12:01;20.70;;;11.53;;
3177;SDS011;38141;42.666;23.344;2023-11-21T01:14:29;19.80;;;10.63;;
3177;SDS011;38141;42.666;23.344;2023-11-21T01:16:56;15.43;;;10.30;;
3177;SDS011;38141;42.666;23.344;2023-11-21T01:19:23;18.00;;;10.10;;
3177;SDS011;38141;42.666;23.344;2023-11-21T01:21:50;14.63;;;9.83;;
3177;SDS011;38141;42.666;23.344;2023-11-21T01:24:18;17.03;;;10.10;;
3177;SDS011;38141;42.666;23.344;2023-11-21T01:26:45;14.37;;;9.23;;
3177;SDS011;38141;42.666;23.344;2023-11-21T01:29:16;12.00;;;8.40;;
3177;SDS011;38141;42.666;23.344;2023-11-21T01:31:42;18.70;;;9.60;;
3177;SDS011;38141;42.666;23.344;2023-11-21T01:34:09;15.17;;;10.10;;
3177;SDS011;38141;42.666;23.344;2023-11-21T01:36:36;15.87;;;9.93;;
3177;SDS011;38141;42.666;23.344;2023-11-21T01:39:03;19.37;;;11.40;;
3177;SDS011;38141;42.666;23.344;2023-11-21T01:41:33;30.63;;;17.87;;
3177;SDS011;38141;42.666;23.344;2023-11-21T01:44:00;23.10;;;12.73;;
3177;SDS011;38141;42.666;23.344;2023-11-21T01:46:29;15.77;;;10.10;;
3177;SDS011;38141;42.666;23.344;2023-11-21T01:48:56;18.33;;;11.70;;
3177;SDS011;38141;42.666;23.344;2023-11-21T01:51:23;20.10;;;12.13;;
3177;SDS011;38141;42.666;23.344;2023-11-21T01:53:53;18.60;;;10.93;;
3177;SDS011;38141;42.666;23.344;2023-11-21T01:56:20;15.60;;;10.43;;
3177;SDS011;38141;42.666;23.344;2023-11-21T01:58:47;16.10;;;10.20;;
3177;SDS011;38141;42.666;23.344;2023-11-21T02:01:14;15.87;;;9.70;;
3177;SDS011;38141;42.666;23.344;2023-11-21T02:03:45;17.10;;;10.90;;
3177;SDS011;38141;42.666;23.344;2023-11-21T02:06:11;18.13;;;11.83;;
3177;SDS011;38141;42.666;23.344;2023-11-21T02:08:38;23.20;;;13.30;;
3177;SDS011;38141;42.666;23.344;2023-11-21T02:11:08;16.70;;;11.10;;
3177;SDS011;38141;42.666;23.344;2023-11-21T02:13:38;21.43;;;12.90;;
3177;SDS011;38141;42.666;23.344;2023-11-21T02:16:08;22.47;;;12.67;;
3177;SDS011;38141;42.666;23.344;2023-11-21T02:18:39;21.97;;;12.50;;
3177;SDS011;38141;42.666;23.344;2023-11-21T02:21:08;22.37;;;14.00;;
3177;SDS011;38141;42.666;23.344;2023-11-21T02:23:37;26.63;;;13.63;;
3177;SDS011;38141;42.666;23.344;2023-11-21T02:26:07;30.43;;;17.30;;
3177;SDS011;38141;42.666;23.344;2023-11-21T02:28:35;26.90;;;15.40;;
3177;SDS011;38141;42.666;23.344;2023-11-21T02:31:02;23.83;;;14.57;;
3177;SDS011;38141;42.666;23.344;2023-11-21T02:33:29;40.63;;;24.67;;
3177;SDS011;38141;42.666;23.344;2023-11-21T02:35:59;24.80;;;15.43;;
3177;SDS011;38141;42.666;23.344;2023-11-21T02:38:26;25.87;;;15.20;;
3177;SDS011;38141;42.666;23.344;2023-11-21T02:40:55;27.10;;;16.63;;
3177;SDS011;38141;42.666;23.344;2023-11-21T02:43:23;31.83;;;18.10;;
3177;SDS011;38141;42.666;23.344;2023-11-21T02:45:50;31.83;;;19.70;;
3177;SDS011;38141;42.666;23.344;2023-11-21T02:48:17;41.17;;;23.07;;
3177;SDS011;38141;42.666;23.344;2023-11-21T02:50:44;34.30;;;18.23;;
3177;SDS011;38141;42.666;23.344;2023-11-21T02:53:11;42.47;;;21.53;;
3177;SDS011;38141;42.666;23.344;2023-11-21T02:55:38;34.67;;;21.07;;
3177;SDS011;38141;42.666;23.344;2023-11-21T02:58:07;47.33;;;25.20;;
3177;SDS011;38141;42.666;23.344;2023-11-21T03:00:36;41.33;;;24.23;;
3177;SDS011;38141;42.666;23.344;2023-11-21T03:03:05;40.53;;;23.23;;
3177;SDS011;38141;42.666;23.344;2023-11-21T03:05:32;34.53;;;18.67;;
3177;SDS011;38141;42.666;23.344;2023-11-21T03:08:00;32.33;;;18.80;;
3177;SDS011;38141;42.666;23.344;2023-11-21T03:10:27;31.53;;;18.50;;
3177;SDS011;38141;42.666;23.344;2023-11-21T03:12:54;33.63;;;19.10;;
3177;SDS011;38141;42.666;23.344;2023-11-21T03:15:23;39.20;;;22.33;;
3177;SDS011;38141;42.666;23.344;2023-11-21T03:17:50;33.57;;;19.33;;
3177;SDS011;38141;42.666;23.344;2023-11-21T03:20:17;30.10;;;19.80;;
3177;SDS011;38141;42.666;23.344;2023-11-21T03:22:44;41.50;;;24.13;;
3177;SDS011;38141;42.666;23.344;2023-11-21T03:25:11;36.80;;;20.33;;
3177;SDS011;38141;42.666;23.344;2023-11-21T03:27:39;38.13;;;21.20;;
3177;SDS011;38141;42.666;23.344;2023-11-21T03:30:07;33.40;;;21.27;;
3177;SDS011;38141;42.666;23.344;2023-11-21T03:32:37;37.57;;;22.33;;
3177;SDS011;38141;42.666;23.344;2023-11-21T03:35:04;38.83;;;21.23;;
3177;SDS011;38141;42.666;23.344;2023-11-21T03:37:32;40.97;;;22.80;;
3177;SDS011;38141;42.666;23.344;2023-11-21T03:39:59;36.03;;;22.27;;
3177;SDS011;38141;42.666;23.344;2023-11-21T03:42:29;37.13;;;22.10;;
3177;SDS011;38141;42.666;23.344;2023-11-21T03:44:55;38.50;;;21.93;;
3177;SDS011;38141;42.666;23.344;2023-11-21T03:47:22;40.17;;;22.23;;
3177;SDS011;38141;42.666;23.344;2023-11-21T03:49:51;48.27;;;25.70;;
3177;SDS011;38141;42.666;23.344;2023-11-21T03:52:18;44.63;;;23.77;;
3177;SDS011;38141;42.666;23.344;2023-11-21T03:54:45;39.77;;;23.30;;
3177;SDS011;38141;42.666;23.344;2023-11-21T03:57:12;36.37;;;22.53;;
3177;SDS011;38141;42.666;23.344;2023-11-21T03:59:39;37.50;;;22.53;;
3177;SDS011;38141;42.666;23.344;2023-11-21T04:02:08;42.70;;;22.73;;
3177;SDS011;38141;42.666;23.344;2023-11-21T04:04:38;44.67;;;23.60;;
3177;SDS011;38141;42.666;23.344;2023-11-21T04:07:06;41.20;;;22.73;;
3177;SDS011;38141;42.666;23.344;2023-11-21T04:09:33;39.90;;;21.90;;
3177;SDS011;38141;42.666;23.344;2023-11-21T04:12:01;43.00;;;22.77;;
3177;SDS011;38141;42.666;23.344;2023-11-21T04:14:28;42.10;;;23.30;;
3177;SDS011;38141;42.666;23.344;2023-11-21T04:16:55;43.83;;;21.90;;
3177;SDS011;38141;42.666;23.344;2023-11-21T04:19:22;42.63;;;22.37;;
3177;SDS011;38141;42.666;23.344;2023-11-21T04:21:49;39.53;;;21.87;;
3177;SDS011;38141;42.666;23.344;2023-11-21T04:24:18;31.77;;;18.87;;
3177;SDS011;38141;42.666;23.344;2023-11-21T04:26:45;34.93;;;19.87;;
3177;SDS011;38141;42.666;23.344;2023-11-21T04:29:12;28.93;;;18.13;;
3177;SDS011;38141;42.666;23.344;2023-11-21T04:31:38;26.17;;;16.73;;
3177;SDS011;38141;42.666;23.344;2023-11-21T04:34:06;35.07;;;18.33;;
3177;SDS011;38141;42.666;23.344;2023-11-21T04:36:33;38.40;;;21.80;;
3177;SDS011;38141;42.666;23.344;2023-11-21T04:39:03;32.43;;;19.90;;
3177;SDS011;38141;42.666;23.344;2023-11-21T04:41:33;30.90;;;17.60;;
3177;SDS011;38141;42.666;23.344;2023-11-21T04:43:59;24.40;;;14.37;;
3177;SDS011;38141;42.666;23.344;2023-11-21T04:46:27;38.87;;;19.80;;
3177;SDS011;38141;42.666;23.344;2023-11-21T04:48:53;41.50;;;19.83;;
3177;SDS011;38141;42.666;23.344;2023-11-21T04:51:20;27.40;;;16.30;;
3177;SDS011;38141;42.666;23.344;2023-11-21T04:53:47;26.40;;;16.40;;
3177;SDS011;38141;42.666;23.344;2023-11-21T04:56:14;24.33;;;14.00;;
3177;SDS011;38141;42.666;23.344;2023-11-21T04:58:43;33.50;;;20.07;;
3177;SDS011;38141;42.666;23.344;2023-11-21T05:01:10;37.23;;;20.10;;
3177;SDS011;38141;42.666;23.344;2023-11-21T05:03:37;41.23;;;21.90;;
3177;SDS011;38141;42.666;23.344;2023-11-21T05:06:05;43.90;;;22.10;;
3177;SDS011;38141;42.666;23.344;2023-11-21T05:08:33;38.00;;;20.97;;
3177;SDS011;38141;42.666;23.344;2023-11-21T05:11:00;39.83;;;20.83;;
3177;SDS011;38141;42.666;23.344;2023-11-21T05:13:29;44.43;;;23.03;;
3177;SDS011;38141;42.666;23.344;2023-11-21T05:15:59;54.47;;;25.23;;
3177;SDS011;38141;42.666;23.344;2023-11-21T05:18:29;35.93;;;19.17;;
3177;SDS011;38141;42.666;23.344;2023-11-21T05:20:56;38.10;;;20.70;;
3177;SDS011;38141;42.666;23.344;2023-11-21T05:23:23;33.93;;;20.50;;
3177;SDS011;38141;42.666;23.344;2023-11-21T05:25:50;44.63;;;20.87;;
3177;SDS011;38141;42.666;23.344;2023-11-21T05:28:17;39.63;;;23.57;;
3177;SDS011;38141;42.666;23.344;2023-11-21T05:30:43;41.20;;;23.03;;
3177;SDS011;38141;42.666;23.344;2023-11-21T05:33:12;29.83;;;17.67;;
3177;SDS011;38141;42.666;23.344;2023-11-21T05:35:39;44.77;;;22.57;;
3177;SDS011;38141;42.666;23.344;2023-11-21T05:38:05;35.63;;;21.40;;
3177;SDS011;38141;42.666;23.344;2023-11-21T05:40:32;39.77;;;20.83;;
3177;SDS011;38141;42.666;23.344;2023-11-21T05:42:59;34.60;;;19.30;;
3177;SDS011;38141;42.666;23.344;2023-11-21T05:45:27;37.30;;;22.10;;
3177;SDS011;38141;42.666;23.344;2023-11-21T05:47:55;46.43;;;22.03;;
3177;SDS011;38141;42.666;23.344;2023-11-21T05:50:23;47.73;;;21.63;;
3177;SDS011;38141;42.666;23.344;2023-11-21T05:52:50;35.27;;;21.07;;
3177;SDS011;38141;42.666;23.344;2023-11-21T05:55:17;49.97;;;21.23;;
3177;SDS011;38141;42.666;23.344;2023-11-21T05:57:46;34.40;;;18.83;;
3177;SDS011;38141;42.666;23.344;2023-11-21T06:00:14;43.53;;;22.60;;
3177;SDS011;38141;42.666;23.344;2023-11-21T08:00:30;21.70;;;12.53;;
3177;SDS011;38141;42.666;23.344;2023-11-21T08:02:58;21.63;;;14.60;;
3177;SDS011;38141;42.666;23.344;2023-11-21T08:05:25;16.87;;;12.23;;
3177;SDS011;38141;42.666;23.344;2023-11-21T08:07:52;18.23;;;12.90;;
3177;SDS011;38141;42.666;23.344;2023-11-21T08:10:19;18.23;;;11.20;;
3177;SDS011;38141;42.666;23.344;2023-11-21T08:12:47;25.50;;;14.73;;
3177;SDS011;38141;42.666;23.344;2023-11-21T08:15:16;21.40;;;13.37;;
3177;SDS011;38141;42.666;23.344;2023-11-21T08:17:44;21.97;;;13.60;;
3177;SDS011;38141;42.666;23.344;2023-11-21T08:20:12;20.90;;;13.40;;
3177;SDS011;38141;42.666;23.344;2023-11-21T08:22:41;19.60;;;12.73;;
3177;SDS011;38141;42.666;23.344;2023-11-21T08:25:08;21.20;;;14.33;;
3177;SDS011;38141;42.666;23.344;2023-11-21T08:27:35;23.27;;;14.43;;
3177;SDS011;38141;42.666;23.344;2023-11-21T08:30:02;28.10;;;14.70;;
3177;SDS011;38141;42.666;23.344;2023-11-21T08:32:30;22.70;;;15.07;;
3177;SDS011;38141;42.666;23.344;2023-11-21T08:34:59;20.83;;;14.70;;
3177;SDS011;38141;42.666;23.344;2023-11-21T08:37:26;22.23;;;14.80;;
3177;SDS011;38141;42.666;23.344;2023-11-21T08:39:57;28.83;;;15.50;;
3177;SDS011;38141;42.666;23.344;2023-11-21T08:42:24;22.70;;;15.97;;
3177;SDS011;38141;42.666;23.344;2023-11-21T08:44:55;25.00;;;15.13;;
3177;SDS011;38141;42.666;23.344;2023-11-21T08:47:24;21.43;;;15.60;;
3177;SDS011;38141;42.666;23.344;2023-11-21T08:49:51;24.20;;;15.70;;
3177;SDS011;38141;42.666;23.344;2023-11-21T08:52:20;22.33;;;15.60;;
3177;SDS011;38141;42.666;23.344;2023-11-21T08:54:48;21.37;;;15.00;;
3177;SDS011;38141;42.666;23.344;2023-11-21T08:57:21;22.10;;;14.63;;
3177;SDS011;38141;42.666;23.344;2023-11-21T08:59:47;21.97;;;14.83;;
3177;SDS011;38141;42.666;23.344;2023-11-21T09:02:20;20.50;;;14.23;;
3177;SDS011;38141;42.666;23.344;2023-11-21T09:04:48;19.77;;;14.93;;
3177;SDS011;38141;42.666;23.344;2023-11-21T09:07:16;23.10;;;16.23;;
3177;SDS011;38141;42.666;23.344;2023-11-21T09:09:45;24.00;;;14.67;;
3177;SDS011;38141;42.666;23.344;2023-11-21T09:12:12;22.03;;;15.57;;
3177;SDS011;38141;42.666;23.344;2023-11-21T09:14:39;29.80;;;19.83;;
3177;SDS011;38141;42.666;23.344;2023-11-21T09:17:09;43.30;;;26.37;;
3177;SDS011;38141;42.666;23.344;2023-11-21T09:19:39;49.60;;;32.27;;
3177;SDS011;38141;42.666;23.344;2023-11-21T09:22:06;46.73;;;31.63;;
3177;SDS011;38141;42.666;23.344;2023-11-21T09:24:33;43.30;;;29.40;;
3177;SDS011;38141;42.666;23.344;2023-11-21T09:27:02;52.07;;;32.40;;
3177;SDS011;38141;42.666;23.344;2023-11-21T09:29:30;47.67;;;31.53;;
3177;SDS011;38141;42.666;23.344;2023-11-21T09:31:57;49.90;;;33.00;;
3177;SDS011;38141;42.666;23.344;2023-11-21T09:34:24;49.23;;;32.40;;
3177;SDS011;38141;42.666;23.344;2023-11-21T09:36:52;51.10;;;29.47;;
3177;SDS011;38141;42.666;23.344;2023-11-21T09:39:19;45.63;;;29.83;;
3177;SDS011;38141;42.666;23.344;2023-11-21T09:41:49;45.50;;;31.00;;
3177;SDS011;38141;42.666;23.344;2023-11-21T09:44:22;48.37;;;30.63;;
3177;SDS011;38141;42.666;23.344;2023-11-21T09:46:59;43.53;;;27.90;;
3177;SDS011;38141;42.666;23.344;2023-11-21T09:49:26;41.80;;;27.40;;
3177;SDS011;38141;42.666;23.344;2023-11-21T09:51:54;39.00;;;25.97;;
3177;SDS011;38141;42.666;23.344;2023-11-21T09:54:22;41.20;;;24.73;;
3177;SDS011;38141;42.666;23.344;2023-11-21T09:56:49;46.10;;;28.07;;
3177;SDS011;38141;42.666;23.344;2023-11-21T09:59:16;44.37;;;25.70;;
3177;SDS011;38141;42.666;23.344;2023-11-21T10:01:45;34.83;;;23.00;;
3177;SDS011;38141;42.666;23.344;2023-11-21T10:04:12;35.73;;;23.70;;
3177;SDS011;38141;42.666;23.344;2023-11-21T10:06:41;31.23;;;20.57;;
3177;SDS011;38141;42.666;23.344;2023-11-21T10:09:08;30.03;;;21.33;;
3177;SDS011;38141;42.666;23.344;2023-11-21T10:11:38;33.33;;;22.07;;
3177;SDS011;38141;42.666;23.344;2023-11-21T10:14:07;29.30;;;18.90;;
3177;SDS011;38141;42.666;23.344;2023-11-21T10:16:38;23.87;;;18.00;;
3177;SDS011;38141;42.666;23.344;2023-11-21T10:19:07;27.07;;;18.53;;
3177;SDS011;38141;42.666;23.344;2023-11-21T10:21:36;29.17;;;19.40;;
3177;SDS011;38141;42.666;23.344;2023-11-21T10:24:04;32.23;;;21.97;;
3177;SDS011;38141;42.666;23.344;2023-11-21T10:26:32;30.03;;;19.30;;
3177;SDS011;38141;42.666;23.344;2023-11-21T10:29:00;25.77;;;17.30;;
3177;SDS011;38141;42.666;23.344;2023-11-21T10:31:29;29.73;;;18.30;;
3177;SDS011;38141;42.666;23.344;2023-11-21T10:33:57;33.00;;;17.80;;
3177;SDS011;38141;42.666;23.344;2023-11-21T10:36:40;20.13;;;12.73;;
3177;SDS011;38141;42.666;23.344;2023-11-21T10:39:07;21.87;;;14.83;;
3177;SDS011;38141;42.666;23.344;2023-11-21T10:41:43;28.50;;;14.63;;
3177;SDS011;38141;42.666;23.344;2023-11-21T10:44:10;24.70;;;13.97;;
3177;SDS011;38141;42.666;23.344;2023-11-21T10:46:39;17.37;;;13.20;;
3177;SDS011;38141;42.666;23.344;2023-11-21T10:49:08;19.60;;;14.00;;
3177;SDS011;38141;42.666;23.344;2023-11-21T10:51:35;22.13;;;14.83;;
3177;SDS011;38141;42.666;23.344;2023-11-21T10:54:03;19.57;;;14.30;;
3177;SDS011;38141;42.666;23.344;2023-11-21T10:56:30;24.53;;;13.90;;
3177;SDS011;38141;42.666;23.344;2023-11-21T10:59:00;24.50;;;16.70;;
3177;SDS011;38141;42.666;23.344;2023-11-21T11:01:27;23.97;;;16.43;;
3177;SDS011;38141;42.666;23.344;2023-11-21T11:03:57;55.37;;;31.20;;
3177;SDS011;38141;42.666;23.344;2023-11-21T11:06:25;30.70;;;19.50;;
3177;SDS011;38141;42.666;23.344;2023-11-21T11:08:54;29.10;;;18.87;;
3177;SDS011;38141;42.666;23.344;2023-11-21T11:11:24;31.87;;;19.77;;
3177;SDS011;38141;42.666;23.344;2023-11-21T11:13:52;28.93;;;18.17;;
3177;SDS011;38141;42.666;23.344;2023-11-21T11:18:50;24.53;;;16.73;;
3177;SDS011;38141;42.666;23.344;2023-11-21T11:21:22;24.20;;;16.40;;
3177;SDS011;38141;42.666;23.344;2023-11-21T11:23:58;27.10;;;18.70;;
3177;SDS011;38141;42.666;23.344;2023-11-21T11:26:44;20.07;;;14.50;;
3177;SDS011;38141;42.666;23.344;2023-11-21T11:29:18;28.87;;;16.90;;
3177;SDS011;38141;42.666;23.344;2023-11-21T11:31:55;23.80;;;15.40;;
3177;SDS011;38141;42.666;23.344;2023-11-21T11:34:30;25.20;;;16.43;;
3177;SDS011;38141;42.666;23.344;2023-11-21T11:37:02;23.43;;;15.80;;
3177;SDS011;38141;42.666;23.344;2023-11-21T11:39:34;20.70;;;12.87;;
3177;SDS011;38141;42.666;23.344;2023-11-21T11:42:06;20.73;;;13.70;;
3177;SDS011;38141;42.666;23.344;2023-11-21T11:44:46;19.13;;;12.20;;
3177;SDS011;38141;42.666;23.344;2023-11-21T11:47:24;19.27;;;13.27;;
3177;SDS011;38141;42.666;23.344;2023-11-21T11:49:56;22.30;;;16.33;;
3177;SDS011;38141;42.666;23.344;2023-11-21T11:52:34;20.73;;;14.00;;
3177;SDS011;38141;42.666;23.344;2023-11-21T11:55:06;17.33;;;12.17;;
3177;SDS011;38141;42.666;23.344;2023-11-21T11:57:37;22.27;;;13.40;;
3177;SDS011;38141;42.666;23.344;2023-11-21T12:00:11;21.00;;;14.67;;
3177;SDS011;38141;42.666;23.344;2023-11-21T12:02:44;23.87;;;15.67;;
3177;SDS011;38141;42.666;23.344;2023-11-21T12:05:13;21.97;;;15.57;;
3177;SDS011;38141;42.666;23.344;2023-11-21T12:07:44;20.13;;;14.87;;
3177;SDS011;38141;42.666;23.344;2023-11-21T12:10:13;23.23;;;15.90;;
3177;SDS011;38141;42.666;23.344;2023-11-21T12:12:44;22.97;;;16.97;;
3177;SDS011;38141;42.666;23.344;2023-11-21T12:15:12;25.23;;;16.60;;
3177;SDS011;38141;42.666;23.344;2023-11-21T12:17:39;28.70;;;18.97;;
3177;SDS011;38141;42.666;23.344;2023-11-21T12:20:09;27.40;;;18.50;;
3177;SDS011;38141;42.666;23.344;2023-11-21T12:22:43;37.50;;;21.07;;
3177;SDS011;38141;42.666;23.344;2023-11-21T12:25:20;29.77;;;20.93;;
3177;SDS011;38141;42.666;23.344;2023-11-21T12:27:50;36.50;;;22.20;;
3177;SDS011;38141;42.666;23.344;2023-11-21T12:30:18;33.37;;;20.90;;
3177;SDS011;38141;42.666;23.344;2023-11-21T12:32:48;42.23;;;24.40;;
3177;SDS011;38141;42.666;23.344;2023-11-21T12:35:17;38.83;;;23.03;;
3177;SDS011;38141;42.666;23.344;2023-11-21T12:37:46;36.20;;;22.97;;
3177;SDS011;38141;42.666;23.344;2023-11-21T12:40:14;38.53;;;24.73;;
3177;SDS011;38141;42.666;23.344;2023-11-21T12:42:43;48.43;;;25.20;;
3177;SDS011;38141;42.666;23.344;2023-11-21T12:45:21;42.47;;;25.37;;
3177;SDS011;38141;42.666;23.344;2023-11-21T12:47:51;39.53;;;25.10;;
3177;SDS011;38141;42.666;23.344;2023-11-21T12:50:22;42.33;;;25.33;;
3177;SDS011;38141;42.666;23.344;2023-11-21T12:52:52;46.73;;;26.00;;
3177;SDS011;38141;42.666;23.344;2023-11-21T12:55:19;39.13;;;26.33;;
3177;SDS011;38141;42.666;23.344;2023-11-21T12:57:48;41.40;;;25.60;;
3177;SDS011;38141;42.666;23.344;2023-11-21T13:00:17;42.27;;;26.50;;
3177;SDS011;38141;42.666;23.344;2023-11-21T13:02:54;44.90;;;26.50;;
3177;SDS011;38141;42.666;23.344;2023-11-21T13:05:24;46.63;;;29.70;;
3177;SDS011;38141;42.666;23.344;2023-11-21T13:07:51;47.90;;;28.40;;
3177;SDS011;38141;42.666;23.344;2023-11-21T13:10:20;45.93;;;28.27;;
3177;SDS011;38141;42.666;23.344;2023-11-21T13:12:51;44.03;;;27.17;;
3177;SDS011;38141;42.666;23.344;2023-11-21T13:15:18;47.83;;;28.20;;
3177;SDS011;38141;42.666;23.344;2023-11-21T13:17:45;45.43;;;26.77;;
3177;SDS011;38141;42.666;23.344;2023-11-21T13:20:14;47.30;;;27.73;;
3177;SDS011;38141;42.666;23.344;2023-11-21T13:22:45;47.30;;;27.97;;
3177;SDS011;38141;42.666;23.344;2023-11-21T13:25:14;44.07;;;29.30;;
3177;SDS011;38141;42.666;23.344;2023-11-21T13:27:42;41.53;;;26.27;;
3177;SDS011;38141;42.666;23.344;2023-11-21T13:30:11;43.93;;;27.03;;
3177;SDS011;38141;42.666;23.344;2023-11-21T13:32:41;40.87;;;27.00;;
3177;SDS011;38141;42.666;23.344;2023-11-21T13:35:09;43.17;;;26.90;;
3177;SDS011;38141;42.666;23.344;2023-11-21T13:37:47;45.13;;;27.57;;
3177;SDS011;38141;42.666;23.344;2023-11-21T13:40:19;49.17;;;27.40;;
3177;SDS011;38141;42.666;23.344;2023-11-21T13:42:51;48.03;;;28.70;;
3177;SDS011;38141;42.666;23.344;2023-11-21T13:45:20;49.87;;;28.23;;
3177;SDS011;38141;42.666;23.344;2023-11-21T13:47:49;54.57;;;31.60;;
3177;SDS011;38141;42.666;23.344;2023-11-21T13:50:22;41.40;;;28.07;;
3177;SDS011;38141;42.666;23.344;2023-11-21T13:52:55;38.67;;;27.00;;
3177;SDS011;38141;42.666;23.344;2023-11-21T13:55:23;53.07;;;30.53;;
3177;SDS011;38141;42.666;23.344;2023-11-21T13:57:53;43.33;;;28.40;;
3177;SDS011;38141;42.666;23.344;2023-11-21T14:00:20;47.10;;;27.93;;
3177;SDS011;38141;42.666;23.344;2023-11-21T14:03:07;53.93;;;28.13;;
3177;SDS011;38141;42.666;23.344;2023-11-21T14:05:42;38.60;;;25.77;;
3177;SDS011;38141;42.666;23.344;2023-11-21T14:08:13;42.70;;;28.60;;
3177;SDS011;38141;42.666;23.344;2023-11-21T14:10:42;46.10;;;28.87;;
3177;SDS011;38141;42.666;23.344;2023-11-21T14:13:10;43.23;;;28.03;;
3177;SDS011;38141;42.666;23.344;2023-11-21T14:15:38;43.37;;;26.73;;
3177;SDS011;38141;42.666;23.344;2023-11-21T14:18:08;47.43;;;30.10;;
3177;SDS011;38141;42.666;23.344;2023-11-21T14:20:37;47.23;;;29.20;;
3177;SDS011;38141;42.666;23.344;2023-11-21T14:23:05;49.20;;;29.60;;
3177;SDS011;38141;42.666;23.344;2023-11-21T14:25:33;40.70;;;27.20;;
3177;SDS011;38141;42.666;23.344;2023-11-21T14:28:02;46.70;;;27.40;;
3177;SDS011;38141;42.666;23.344;2023-11-21T14:30:29;44.23;;;29.00;;
3177;SDS011;38141;42.666;23.344;2023-11-21T14:33:00;47.40;;;28.80;;
3177;SDS011;38141;42.666;23.344;2023-11-21T14:35:27;50.90;;;29.33;;
3177;SDS011;38141;42.666;23.344;2023-11-21T14:37:55;46.47;;;29.43;;
3177;SDS011;38141;42.666;23.344;2023-11-21T14:40:23;52.70;;;28.83;;
3177;SDS011;38141;42.666;23.344;2023-11-21T14:42:52;52.20;;;29.37;;
3177;SDS011;38141;42.666;23.344;2023-11-21T14:45:22;53.23;;;30.27;;
3177;SDS011;38141;42.666;23.344;2023-11-21T14:47:51;50.10;;;29.30;;
3177;SDS011;38141;42.666;23.344;2023-11-21T14:50:27;52.07;;;29.23;;
3177;SDS011;38141;42.666;23.344;2023-11-21T14:53:16;48.57;;;28.60;;
3177;SDS011;38141;42.666;23.344;2023-11-21T14:55:56;48.70;;;29.10;;
3177;SDS011;38141;42.666;23.344;2023-11-21T14:58:26;50.80;;;30.27;;
3177;SDS011;38141;42.666;23.344;2023-11-21T15:00:55;47.53;;;28.47;;
3177;SDS011;38141;42.666;23.344;2023-11-21T15:03:26;52.30;;;30.30;;
3177;SDS011;38141;42.666;23.344;2023-11-21T15:06:11;55.43;;;28.90;;
3177;SDS011;38141;42.666;23.344;2023-11-21T15:08:49;53.20;;;29.60;;
3177;SDS011;38141;42.666;23.344;2023-11-21T15:11:42;55.60;;;29.87;;
3177;SDS011;38141;42.666;23.344;2023-11-21T15:14:09;65.97;;;31.60;;
3177;SDS011;38141;42.666;23.344;2023-11-21T15:16:45;48.87;;;28.50;;
3177;SDS011;38141;42.666;23.344;2023-11-21T15:19:16;54.70;;;29.30;;
3177;SDS011;38141;42.666;23.344;2023-11-21T15:21:49;48.10;;;29.27;;
3177;SDS011;38141;42.666;23.344;2023-11-21T15:24:16;66.53;;;33.77;;
3177;SDS011;38141;42.666;23.344;2023-11-21T15:26:43;62.77;;;31.70;;
3177;SDS011;38141;42.666;23.344;2023-11-21T15:29:12;63.37;;;30.27;;
3177;SDS011;38141;42.666;23.344;2023-11-21T15:31:40;55.23;;;30.40;;
3177;SDS011;38141;42.666;23.344;2023-11-21T15:34:11;54.00;;;30.00;;
3177;SDS011;38141;42.666;23.344;2023-11-21T15:36:38;56.00;;;30.60;;
3177;SDS011;38141;42.666;23.344;2023-11-21T15:39:05;53.17;;;32.30;;
3177;SDS011;38141;42.666;23.344;2023-11-21T15:41:32;53.53;;;31.47;;
3177;SDS011;38141;42.666;23.344;2023-11-21T15:44:00;55.40;;;32.27;;
3177;SDS011;38141;42.666;23.344;2023-11-21T15:46:30;61.83;;;32.60;;
3177;SDS011;38141;42.666;23.344;2023-11-21T15:48:57;59.27;;;33.20;;
3177;SDS011;38141;42.666;23.344;2023-11-21T15:51:25;61.83;;;32.13;;
3177;SDS011;38141;42.666;23.344;2023-11-21T15:53:52;53.20;;;30.40;;
3177;SDS011;38141;42.666;23.344;2023-11-21T15:56:19;58.87;;;34.07;;
3177;SDS011;38141;42.666;23.344;2023-11-21T15:58:46;149.60;;;67.83;;
3177;SDS011;38141;42.666;23.344;2023-11-21T16:01:13;61.80;;;36.10;;
3177;SDS011;38141;42.666;23.344;2023-11-21T16:03:42;65.13;;;36.73;;
3177;SDS011;38141;42.666;23.344;2023-11-21T16:06:13;72.40;;;39.60;;
3177;SDS011;38141;42.666;23.344;2023-11-21T16:08:40;76.03;;;42.07;;
3177;SDS011;38141;42.666;23.344;2023-11-21T16:11:08;79.73;;;44.73;;
3177;SDS011;38141;42.666;23.344;2023-11-21T16:13:35;79.13;;;43.70;;
3177;SDS011;38141;42.666;23.344;2023-11-21T16:16:02;72.80;;;42.70;;
3177;SDS011;38141;42.666;23.344;2023-11-21T16:18:30;72.30;;;41.20;;
3177;SDS011;38141;42.666;23.344;2023-11-21T16:20:58;73.03;;;40.67;;
3177;SDS011;38141;42.666;23.344;2023-11-21T16:23:25;72.40;;;43.10;;
3177;SDS011;38141;42.666;23.344;2023-11-21T16:25:52;72.67;;;40.23;;
3177;SDS011;38141;42.666;23.344;2023-11-21T16:28:21;79.63;;;41.87;;
3177;SDS011;38141;42.666;23.344;2023-11-21T16:30:50;69.03;;;40.83;;